createdAt,value
2018-06-16T00:00:09.361Z,98503.75
2018-06-16T00:02:37.734Z,98505.77
2018-06-16T00:05:06.209Z,98508.95
2018-06-16T00:07:34.614Z,98505.41
2018-06-16T00:10:03.107Z,98502.68
2018-06-16T00:12:31.577Z,98501.66
2018-06-16T00:15:00.073Z,98504.70
2018-06-16T00:17:28.686Z,98502.33
2018-06-16T00:19:57.298Z,98508.89
2018-06-16T00:22:25.702Z,98500.30
2018-06-16T00:24:59.994Z,98502.81
2018-06-16T00:27:29.523Z,98500.78
2018-06-16T00:29:58.291Z,98502.58
2018-06-16T00:32:27.003Z,98503.91
2018-06-16T00:34:55.453Z,98497.45
2018-06-16T00:37:24.367Z,98504.02
2018-06-16T00:39:53.050Z,98499.25
2018-06-16T00:42:21.554Z,98500.74
2018-06-16T00:44:50.106Z,98499.72
2018-06-16T00:47:18.561Z,98495.28
2018-06-16T00:49:46.994Z,98499.65
2018-06-16T00:52:15.493Z,98500.30
2018-06-16T00:54:44.042Z,98495.38
2018-06-16T00:57:23.717Z,98495.20
2018-06-16T00:59:52.174Z,98492.87
2018-06-16T01:02:20.679Z,98494.55
2018-06-16T01:04:49.137Z,98486.27
2018-06-16T01:07:17.514Z,98490.42
2018-06-16T01:09:45.869Z,98498.50
2018-06-16T01:12:14.334Z,98497.47
2018-06-16T01:14:42.726Z,98490.52
2018-06-16T01:17:11.161Z,98490.98
2018-06-16T01:19:39.610Z,98495.38
2018-06-16T01:22:08.079Z,98496.36
2018-06-16T01:24:36.547Z,98489.91
2018-06-16T01:27:05.034Z,98498.31
2018-06-16T01:29:33.519Z,98491.52
2018-06-16T01:32:02.258Z,98492.82
2018-06-16T01:34:30.871Z,98489.08
2018-06-16T01:36:59.530Z,98493.22
2018-06-16T01:39:27.931Z,98485.63
2018-06-16T01:41:56.385Z,98484.62
2018-06-16T01:44:24.799Z,98484.37
2018-06-16T01:46:53.288Z,98486.88
2018-06-16T01:49:21.769Z,98480.64
2018-06-16T01:51:50.222Z,98478.78
2018-06-16T01:54:18.626Z,98485.15
2018-06-16T02:02:43.282Z,98490.45
2018-06-16T02:05:11.742Z,98493.02
2018-06-16T02:07:40.186Z,98497.06
2018-06-16T02:10:08.655Z,98502.83
2018-06-16T02:12:37.102Z,98498.79
2018-06-16T02:15:06.255Z,98502.69
2018-06-16T02:17:34.635Z,98503.59
2018-06-16T02:20:03.154Z,98502.61
2018-06-16T02:22:31.597Z,98503.91
2018-06-16T02:25:00.017Z,98508.59
2018-06-16T02:27:28.483Z,98512.63
2018-06-16T02:29:57.107Z,98511.29
2018-06-16T02:32:25.522Z,98509.30
2018-06-16T02:34:53.967Z,98516.39
2018-06-16T02:37:22.370Z,98520.42
2018-06-16T02:39:50.846Z,98518.06
2018-06-16T02:42:19.287Z,98506.58
2018-06-16T02:44:47.750Z,98511.54
2018-06-16T02:47:16.199Z,98514.86
2018-06-16T02:49:44.619Z,98513.72
2018-06-16T02:52:13.058Z,98510.70
2018-06-16T02:54:41.470Z,98501.66
2018-06-16T02:57:09.946Z,98508.03
2018-06-16T02:59:38.430Z,98505.05
2018-06-16T03:02:06.939Z,98502.05
2018-06-16T03:04:35.385Z,98496.48
2018-06-16T03:07:03.869Z,98495.00
2018-06-16T03:09:32.354Z,98495.32
2018-06-16T03:12:00.922Z,98494.77
2018-06-16T03:14:29.395Z,98499.94
2018-06-16T03:16:57.862Z,98493.97
2018-06-16T03:19:26.246Z,98496.78
2018-06-16T03:21:54.738Z,98490.61
2018-06-16T03:24:23.116Z,98490.22
2018-06-16T03:26:51.608Z,98484.52
2018-06-16T03:29:20.086Z,98493.16
2018-06-16T03:31:48.513Z,98485.69
2018-06-16T03:34:16.942Z,98484.82
2018-06-16T03:36:45.376Z,98486.11
2018-06-16T03:39:13.805Z,98489.44
2018-06-16T03:41:42.301Z,98490.91
2018-06-16T03:44:15.114Z,98492.69
2018-06-16T03:46:43.642Z,98496.14
2018-06-16T03:49:12.083Z,98498.52
2018-06-16T03:51:40.609Z,98495.50
2018-06-16T03:54:09.376Z,98502.89
2018-06-16T03:56:37.786Z,98501.27
2018-06-16T03:59:06.254Z,98486.95
2018-06-16T04:01:34.782Z,98487.52
2018-06-16T04:04:03.273Z,98485.86
2018-06-16T04:06:31.702Z,98485.88
2018-06-16T04:09:00.200Z,98487.59
2018-06-16T04:11:28.669Z,98486.25
2018-06-16T04:13:57.169Z,98488.43
2018-06-16T04:16:25.685Z,98490.98
2018-06-16T04:18:54.142Z,98490.53
2018-06-16T04:21:22.604Z,98500.81
2018-06-16T04:23:51.059Z,98497.84
2018-06-16T04:26:19.417Z,98507.37
2018-06-16T04:28:47.844Z,98511.02
2018-06-16T04:31:16.277Z,98510.70
2018-06-16T04:33:44.730Z,98513.96
2018-06-16T04:36:13.227Z,98507.61
2018-06-16T04:38:41.666Z,98514.41
2018-06-16T04:41:10.145Z,98514.09
2018-06-16T04:43:38.614Z,98517.81
2018-06-16T04:46:07.112Z,98516.19
2018-06-16T04:48:35.617Z,98520.00
2018-06-16T04:51:04.051Z,98518.70
2018-06-16T04:53:32.463Z,98525.45
2018-06-16T04:56:00.967Z,98523.64
2018-06-16T04:58:29.494Z,98530.23
2018-06-16T05:00:57.865Z,98526.92
2018-06-16T05:03:26.275Z,98523.29
2018-06-16T05:05:54.990Z,98528.72
2018-06-16T05:08:23.434Z,98530.80
2018-06-16T05:10:51.847Z,98541.77
2018-06-16T05:13:20.285Z,98536.27
2018-06-16T05:15:48.829Z,98539.50
2018-06-16T05:18:17.321Z,98542.38
2018-06-16T05:20:45.890Z,98542.77
2018-06-16T05:23:14.358Z,98541.12
2018-06-16T05:25:46.137Z,98537.58
2018-06-16T05:28:14.456Z,98534.06
2018-06-16T05:30:42.805Z,98536.45
2018-06-16T05:33:11.234Z,98544.72
2018-06-16T05:35:39.685Z,98546.78
2018-06-16T05:38:08.109Z,98549.98
2018-06-16T05:40:36.619Z,98541.55
2018-06-16T05:43:05.190Z,98543.92
2018-06-16T05:45:33.623Z,98547.13
2018-06-16T05:48:02.008Z,98551.38
2018-06-16T05:50:30.510Z,98546.81
2018-06-16T05:52:58.948Z,98548.37
2018-06-16T05:55:27.362Z,98555.14
2018-06-16T05:57:55.806Z,98550.94
2018-06-16T06:00:24.216Z,98548.76
2018-06-16T06:02:52.686Z,98546.04
2018-06-16T06:05:21.474Z,98551.47
2018-06-16T06:07:50.042Z,98554.16
2018-06-16T06:10:18.522Z,98556.67
2018-06-16T06:12:47.102Z,98554.14
2018-06-16T06:15:15.509Z,98552.45
2018-06-16T06:17:43.871Z,98556.16
2018-06-16T06:20:12.270Z,98550.41
2018-06-16T06:22:40.737Z,98551.89
2018-06-16T06:25:09.222Z,98553.69
2018-06-16T06:27:37.587Z,98558.34
2018-06-16T06:30:06.030Z,98552.15
2018-06-16T06:32:34.437Z,98558.09
2018-06-16T06:35:02.861Z,98562.92
2018-06-16T06:37:31.311Z,98555.62
2018-06-16T06:39:59.710Z,98559.23
2018-06-16T06:42:28.078Z,98559.95
2018-06-16T06:44:56.713Z,98560.58
2018-06-16T06:47:25.158Z,98553.33
2018-06-16T06:49:53.710Z,98554.38
2018-06-16T06:52:22.205Z,98544.87
2018-06-16T06:54:50.602Z,98551.03
2018-06-16T06:57:19.049Z,98554.99
2018-06-16T06:59:47.437Z,98557.25
2018-06-16T07:02:15.848Z,98554.02
2018-06-16T07:04:44.289Z,98556.40
2018-06-16T07:07:12.742Z,98553.72
2018-06-16T07:09:41.164Z,98557.05
2018-06-16T07:12:09.674Z,98560.50
2018-06-16T07:14:38.126Z,98560.67
2018-06-16T07:17:06.609Z,98557.92
2018-06-16T07:19:34.980Z,98560.08
2018-06-16T07:22:03.386Z,98557.89
2018-06-16T07:24:31.733Z,98559.56
2018-06-16T07:27:00.151Z,98562.07
2018-06-16T07:29:28.590Z,98562.07
2018-06-16T07:31:56.995Z,98559.91
2018-06-16T07:34:25.362Z,98563.36
2018-06-16T07:36:53.785Z,98566.48
2018-06-16T07:39:22.218Z,98568.66
2018-06-16T07:41:50.666Z,98564.47
2018-06-16T07:44:23.454Z,98574.29
2018-06-16T07:46:51.889Z,98564.88
2018-06-16T07:49:20.370Z,98567.30
2018-06-16T07:51:48.905Z,98565.05
2018-06-16T07:54:17.559Z,98564.80
2018-06-16T07:56:46.081Z,98571.16
2018-06-16T07:59:14.470Z,98562.02
2018-06-16T08:01:42.898Z,98563.05
2018-06-16T08:04:11.329Z,98568.22
2018-06-16T08:06:39.801Z,98565.74
2018-06-16T08:09:09.321Z,98563.80
2018-06-16T08:11:37.922Z,98561.33
2018-06-16T08:14:06.407Z,98566.63
2018-06-16T08:16:34.897Z,98560.53
2018-06-16T08:19:03.378Z,98565.11
2018-06-16T08:21:31.912Z,98559.16
2018-06-16T08:24:00.346Z,98558.13
2018-06-16T08:26:28.809Z,98557.43
2018-06-16T08:28:57.212Z,98559.49
2018-06-16T08:31:25.814Z,98556.42
2018-06-16T08:33:54.301Z,98554.27
2018-06-16T08:36:22.733Z,98552.00
2018-06-16T08:38:51.126Z,98557.80
2018-06-16T08:41:19.582Z,98561.27
2018-06-16T08:43:48.039Z,98562.69
2018-06-16T08:46:16.443Z,98558.61
2018-06-16T08:48:44.905Z,98560.41
2018-06-16T08:51:13.325Z,98561.54
2018-06-16T08:53:41.853Z,98561.56
2018-06-16T08:56:10.257Z,98565.13
2018-06-16T08:58:38.672Z,98558.73
2018-06-16T09:01:07.166Z,98560.84
2018-06-16T09:03:35.959Z,98561.37
2018-06-16T09:06:04.422Z,98559.68
2018-06-16T09:08:32.938Z,98559.46
2018-06-16T09:11:01.538Z,98551.05
2018-06-16T09:13:30.195Z,98549.98
2018-06-16T09:15:58.683Z,98555.01
2018-06-16T09:18:27.311Z,98552.61
2018-06-16T09:20:55.790Z,98555.22
2018-06-16T09:23:24.997Z,98552.11
2018-06-16T09:25:54.110Z,98555.95
2018-06-16T09:28:22.519Z,98556.14
2018-06-16T09:30:50.962Z,98546.57
2018-06-16T09:33:19.346Z,98551.98
2018-06-16T09:35:47.807Z,98550.17
2018-06-16T09:38:16.202Z,98551.45
2018-06-16T09:40:44.635Z,98546.70
2018-06-16T09:43:13.092Z,98550.12
2018-06-16T09:45:41.558Z,98549.55
2018-06-16T09:48:10.109Z,98546.38
2018-06-16T09:50:39.343Z,98542.41
2018-06-16T09:53:07.843Z,98546.91
2018-06-16T09:55:36.362Z,98553.87
2018-06-16T09:58:04.863Z,98545.26
2018-06-16T10:00:38.514Z,98543.42
2018-06-16T10:03:08.081Z,98542.19
2018-06-16T10:05:36.478Z,98546.34
2018-06-16T10:08:05.537Z,98538.84
2018-06-16T10:10:34.009Z,98534.50
2018-06-16T10:13:02.718Z,98537.66
2018-06-16T10:15:31.612Z,98535.62
2018-06-16T10:18:00.254Z,98536.73
2018-06-16T10:20:28.711Z,98535.39
2018-06-16T10:22:57.090Z,98532.42
2018-06-16T10:25:25.573Z,98526.36
2018-06-16T10:27:54.176Z,98529.08
2018-06-16T10:30:23.099Z,98521.97
2018-06-16T10:32:52.155Z,98523.05
2018-06-16T10:35:20.626Z,98512.95
2018-06-16T10:37:49.151Z,98517.71
2018-06-16T10:40:17.570Z,98518.27
2018-06-16T10:42:46.022Z,98516.89
2018-06-16T10:45:15.738Z,98512.09
2018-06-16T10:47:44.187Z,98510.13
2018-06-16T10:50:13.203Z,98509.34
2018-06-16T10:52:41.759Z,98503.45
2018-06-16T10:55:10.206Z,98505.23
2018-06-16T10:57:38.754Z,98505.03
2018-06-16T11:00:08.068Z,98501.20
2018-06-16T11:02:36.491Z,98509.33
2018-06-16T11:05:04.965Z,98501.78
2018-06-16T11:07:33.437Z,98494.95
2018-06-16T11:10:01.993Z,98484.80
2018-06-16T11:12:30.402Z,98496.58
2018-06-16T11:14:58.853Z,98498.48
2018-06-16T11:17:27.295Z,98484.37
2018-06-16T11:19:55.711Z,98485.13
2018-06-16T11:22:24.330Z,98487.08
2018-06-16T11:24:52.988Z,98477.61
2018-06-16T11:27:23.634Z,98486.03
2018-06-16T11:29:52.294Z,98478.48
2018-06-16T11:32:20.714Z,98479.48
2018-06-16T11:34:49.524Z,98478.47
2018-06-16T11:37:17.970Z,98477.91
2018-06-16T11:39:46.619Z,98474.97
2018-06-16T11:42:15.486Z,98473.72
2018-06-16T11:44:44.069Z,98475.50
2018-06-16T11:47:12.526Z,98476.86
2018-06-16T11:49:40.977Z,98471.91
2018-06-16T11:52:09.588Z,98470.23
2018-06-16T11:54:38.035Z,98465.28
2018-06-16T11:57:06.448Z,98466.86
2018-06-16T11:59:35.279Z,98465.53
2018-06-16T12:02:03.715Z,98464.41
2018-06-16T12:04:34.145Z,98463.00
2018-06-16T12:07:02.663Z,98460.78
2018-06-16T12:09:31.067Z,98462.95
2018-06-16T12:11:59.492Z,98463.25
2018-06-16T12:14:28.129Z,98448.69
2018-06-16T12:16:57.189Z,98449.48
2018-06-16T12:19:25.695Z,98448.91
2018-06-16T12:21:54.411Z,98454.53
2018-06-16T12:24:22.969Z,98448.75
2018-06-16T12:26:51.373Z,98460.59
2018-06-16T12:29:20.190Z,98452.55
2018-06-16T12:31:49.105Z,98448.84
2018-06-16T12:34:17.691Z,98453.77
2018-06-16T12:36:46.310Z,98453.00
2018-06-16T12:39:14.715Z,98457.36
2018-06-16T12:41:44.506Z,98451.30
2018-06-16T12:44:12.909Z,98461.06
2018-06-16T12:46:42.355Z,98452.55
2018-06-16T12:49:11.265Z,98450.74
2018-06-16T12:51:39.771Z,98443.03
2018-06-16T12:54:08.218Z,98447.18
2018-06-16T12:56:36.649Z,98446.78
2018-06-16T12:59:05.180Z,98454.73
2018-06-16T13:01:34.277Z,98452.24
2018-06-16T13:04:03.092Z,98443.29
2018-06-16T13:06:31.483Z,98444.68
2018-06-16T13:08:59.877Z,98448.69
2018-06-16T13:11:28.498Z,98442.61
2018-06-16T13:13:57.110Z,98444.70
2018-06-16T13:16:25.562Z,98432.45
2018-06-16T13:19:00.137Z,98425.06
2018-06-16T13:21:28.825Z,98433.95
2018-06-16T13:23:57.737Z,98428.72
2018-06-16T13:26:26.433Z,98432.61
2018-06-16T13:28:55.217Z,98434.34
2018-06-16T13:31:24.482Z,98436.30
2018-06-16T13:33:53.229Z,98433.83
2018-06-16T13:36:21.769Z,98427.68
2018-06-16T13:38:50.473Z,98431.62
2018-06-16T13:41:18.961Z,98432.66
2018-06-16T13:43:47.510Z,98434.82
2018-06-16T13:46:16.198Z,98436.97
2018-06-16T13:48:44.596Z,98434.52
2018-06-16T13:51:13.106Z,98428.09
2018-06-16T13:53:41.563Z,98438.24
2018-06-16T13:56:10.164Z,98431.60
2018-06-16T13:58:38.946Z,98427.25
2018-06-16T14:01:08.122Z,98438.11
2018-06-16T14:03:36.554Z,98430.49
2018-06-16T14:06:05.321Z,98429.95
2018-06-16T14:08:34.023Z,98436.77
2018-06-16T14:11:02.495Z,98433.47
2018-06-16T14:13:31.035Z,98433.64
2018-06-16T14:15:59.923Z,98429.47
2018-06-16T14:18:28.967Z,98422.16
2018-06-16T14:20:57.498Z,98415.08
2018-06-16T14:23:26.051Z,98418.56
2018-06-16T14:25:54.837Z,98424.52
2018-06-16T14:28:23.246Z,98419.12
2018-06-16T14:30:51.734Z,98419.03
2018-06-16T14:33:20.282Z,98416.47
2018-06-16T14:35:48.944Z,98414.59
2018-06-16T14:38:17.610Z,98410.45
2018-06-16T14:40:46.102Z,98410.71
2018-06-16T14:43:14.581Z,98407.73
2018-06-16T14:45:43.059Z,98409.73
2018-06-16T14:48:11.502Z,98409.63
2018-06-16T14:50:39.963Z,98405.64
2018-06-16T14:53:08.454Z,98404.74
2018-06-16T14:55:37.628Z,98404.34
2018-06-16T14:58:06.575Z,98413.63
2018-06-16T15:00:35.048Z,98395.40
2018-06-16T15:03:03.471Z,98407.28
2018-06-16T15:05:32.418Z,98406.56
2018-06-16T15:08:00.932Z,98387.94
2018-06-16T15:10:29.378Z,98387.41
2018-06-16T15:12:57.795Z,98382.72
2018-06-16T15:15:27.108Z,98383.08
2018-06-16T15:17:55.559Z,98388.75
2018-06-16T15:20:24.065Z,98381.32
2018-06-16T15:22:52.710Z,98377.10
2018-06-16T15:25:21.213Z,98380.48
2018-06-16T15:27:49.719Z,98377.15
2018-06-16T15:30:18.534Z,98381.04
2018-06-16T15:32:47.260Z,98369.24
2018-06-16T15:35:15.736Z,98381.91
2018-06-16T15:37:44.625Z,98367.32
2018-06-16T15:40:14.111Z,98369.08
2018-06-16T15:42:42.700Z,98370.56
2018-06-16T15:45:11.122Z,98374.26
2018-06-16T15:47:39.720Z,98369.44
2018-06-16T15:50:08.215Z,98373.87
2018-06-16T15:52:36.768Z,98373.36
2018-06-16T15:55:05.298Z,98368.59
2018-06-16T15:57:33.986Z,98363.75
2018-06-16T16:00:02.410Z,98368.38
2018-06-16T16:02:30.962Z,98368.08
2018-06-16T16:04:59.402Z,98364.84
2018-06-16T16:07:27.917Z,98364.13
2018-06-16T16:09:56.363Z,98368.25
2018-06-16T16:12:24.840Z,98361.76
2018-06-16T16:14:53.373Z,98357.79
2018-06-16T16:17:21.969Z,98358.27
2018-06-16T16:19:50.450Z,98359.67
2018-06-16T16:22:18.869Z,98363.77
2018-06-16T16:24:47.394Z,98363.20
2018-06-16T16:27:15.955Z,98354.00
2018-06-16T16:29:44.394Z,98355.94
2018-06-16T16:32:13.383Z,98346.52
2018-06-16T16:34:41.862Z,98349.45
2018-06-16T16:37:10.419Z,98344.92
2018-06-16T16:39:40.442Z,98345.69
2018-06-16T16:42:08.910Z,98356.97
2018-06-16T16:44:37.352Z,98351.06
2018-06-16T16:47:06.541Z,98359.45
2018-06-16T16:49:35.111Z,98355.78
2018-06-16T16:52:03.647Z,98354.96
2018-06-16T16:54:32.217Z,98350.52
2018-06-16T16:57:00.908Z,98353.79
2018-06-16T16:59:29.679Z,98351.83
2018-06-16T17:01:58.115Z,98349.61
2018-06-16T17:04:26.634Z,98348.50
2018-06-16T17:06:55.306Z,98354.09
2018-06-16T17:09:23.817Z,98358.50
2018-06-16T17:11:52.354Z,98358.19
2018-06-16T17:14:20.866Z,98353.41
2018-06-16T17:16:49.322Z,98352.09
2018-06-16T17:19:18.115Z,98351.67
2018-06-16T17:21:46.494Z,98353.17
2018-06-16T17:24:15.063Z,98353.83
2018-06-16T17:26:43.442Z,98357.59
2018-06-16T17:29:11.886Z,98348.84
2018-06-16T17:31:40.290Z,98354.63
2018-06-16T17:34:08.852Z,98357.08
2018-06-16T17:36:37.468Z,98358.45
2018-06-16T17:39:08.466Z,98362.98
2018-06-16T17:41:36.913Z,98363.36
2018-06-16T17:44:05.594Z,98365.19
2018-06-16T17:46:34.007Z,98360.30
2018-06-16T17:49:02.710Z,98366.03
2018-06-16T17:51:31.162Z,98361.87
2018-06-16T17:53:59.632Z,98361.81
2018-06-16T17:56:28.143Z,98361.05
2018-06-16T17:58:57.121Z,98365.92
2018-06-16T18:01:25.597Z,98372.31
2018-06-16T18:03:54.091Z,98368.05
2018-06-16T18:06:22.582Z,98366.67
2018-06-16T18:08:51.011Z,98370.73
2018-06-16T18:11:19.616Z,98374.44
2018-06-16T18:13:48.122Z,98370.65
2018-06-16T18:16:16.591Z,98366.38
2018-06-16T18:18:45.370Z,98363.83
2018-06-16T18:21:14.052Z,98363.70
2018-06-16T18:23:42.689Z,98359.71
2018-06-16T18:26:11.203Z,98371.59
2018-06-16T18:28:39.844Z,98372.37
2018-06-16T18:31:08.369Z,98375.27
2018-06-16T18:33:36.770Z,98377.77
2018-06-16T18:36:05.582Z,98372.75
2018-06-16T18:38:38.121Z,98372.19
2018-06-16T18:41:08.142Z,98379.80
2018-06-16T18:43:36.569Z,98380.45
2018-06-16T18:46:05.046Z,98383.05
2018-06-16T18:48:33.870Z,98385.49
2018-06-16T18:51:02.344Z,98386.30
2018-06-16T18:53:30.758Z,98393.84
2018-06-16T18:55:59.441Z,98391.68
2018-06-16T18:58:27.870Z,98393.93
2018-06-16T19:00:56.443Z,98388.75
2018-06-16T19:03:25.149Z,98388.84
2018-06-16T19:05:53.798Z,98388.30
2018-06-16T19:08:22.733Z,98393.64
2018-06-16T19:10:51.831Z,98394.99
2018-06-16T19:13:20.294Z,98395.69
2018-06-16T19:18:20.566Z,98398.03
2018-06-16T19:20:49.044Z,98395.52
2018-06-16T19:23:17.527Z,98396.69
2018-06-16T19:25:46.043Z,98393.31
2018-06-16T19:28:14.566Z,98404.74
2018-06-16T19:30:43.175Z,98412.89
2018-06-16T19:33:12.376Z,98409.77
2018-06-16T19:35:40.807Z,98419.73
2018-06-16T19:38:09.357Z,98416.53
2018-06-16T19:40:37.760Z,98430.39
2018-06-16T19:43:06.251Z,98432.70
2018-06-16T19:45:34.870Z,98438.05
2018-06-16T19:48:03.537Z,98434.56
2018-06-16T19:50:31.942Z,98436.44
2018-06-16T19:53:00.548Z,98440.41
2018-06-16T19:55:28.978Z,98445.95
2018-06-16T19:57:57.526Z,98455.05
2018-06-16T20:00:25.910Z,98453.95
2018-06-16T20:02:54.479Z,98453.62
2018-06-16T20:05:23.128Z,98453.80
2018-06-16T20:07:51.621Z,98460.91
2018-06-16T20:10:20.310Z,98455.23
2018-06-16T20:12:48.931Z,98457.77
2018-06-16T20:15:17.491Z,98457.65
2018-06-16T20:17:46.002Z,98456.70
2018-06-16T20:20:14.660Z,98464.70
2018-06-16T20:22:43.128Z,98464.45
2018-06-16T20:25:11.541Z,98469.95
2018-06-16T20:27:41.135Z,98467.92
2018-06-16T20:30:09.743Z,98466.81
2018-06-16T20:32:38.366Z,98468.61
2018-06-16T20:35:06.819Z,98470.78
2018-06-16T20:37:35.407Z,98467.41
2018-06-16T20:40:03.985Z,98472.78
2018-06-16T20:42:32.638Z,98470.73
2018-06-16T20:45:01.263Z,98471.71
2018-06-16T20:47:29.782Z,98481.15
2018-06-16T20:49:58.205Z,98484.52
2018-06-16T20:52:26.768Z,98480.12
2018-06-16T20:54:55.950Z,98487.89
2018-06-16T20:57:24.490Z,98482.51
2018-06-16T20:59:53.082Z,98486.46
2018-06-16T21:02:21.551Z,98489.05
2018-06-16T21:04:50.103Z,98500.75
2018-06-16T21:07:18.494Z,98499.87
2018-06-16T21:09:49.678Z,98500.61
2018-06-16T21:12:18.138Z,98503.38
2018-06-16T21:14:46.720Z,98506.59
2018-06-16T21:17:15.559Z,98511.98
2018-06-16T21:19:44.021Z,98518.64
2018-06-16T21:22:12.577Z,98518.56
2018-06-16T21:24:41.167Z,98514.45
2018-06-16T21:27:09.738Z,98524.05
2018-06-16T21:29:38.299Z,98519.31
2018-06-16T21:32:06.967Z,98532.80
2018-06-16T21:34:35.661Z,98522.73
2018-06-16T21:37:04.075Z,98526.80
2018-06-16T21:39:32.615Z,98533.95
2018-06-16T21:42:01.195Z,98538.32
2018-06-16T21:44:29.679Z,98548.25
2018-06-16T21:46:58.110Z,98551.35
2018-06-16T21:49:26.649Z,98551.87
2018-06-16T21:51:55.218Z,98552.80
2018-06-16T21:54:23.649Z,98559.52
2018-06-16T21:56:52.166Z,98557.72
2018-06-16T21:59:20.606Z,98560.85
2018-06-16T22:01:49.077Z,98562.38
2018-06-16T22:04:17.671Z,98565.34
2018-06-16T22:06:46.094Z,98562.07
2018-06-16T22:09:14.531Z,98569.34
2018-06-16T22:11:43.332Z,98578.12
2018-06-16T22:14:11.759Z,98578.78
2018-06-16T22:16:40.152Z,98576.66
2018-06-16T22:19:08.691Z,98581.95
2018-06-16T22:21:37.211Z,98584.20
2018-06-16T22:24:05.651Z,98580.45
2018-06-16T22:26:34.080Z,98583.48
2018-06-16T22:29:02.767Z,98581.11
2018-06-16T22:31:31.190Z,98576.63
2018-06-16T22:34:00.350Z,98586.82
2018-06-16T22:36:28.803Z,98584.00
2018-06-16T22:38:57.210Z,98587.79
2018-06-16T22:41:25.930Z,98589.94
2018-06-16T22:43:54.526Z,98590.00
2018-06-16T22:46:23.103Z,98591.91
2018-06-16T22:48:51.534Z,98597.23
2018-06-16T22:51:19.938Z,98598.81
2018-06-16T22:53:48.606Z,98597.02
2018-06-16T22:56:17.026Z,98595.72
2018-06-16T22:58:45.393Z,98596.80
2018-06-16T23:01:13.966Z,98595.09
2018-06-16T23:03:42.425Z,98593.81
2018-06-16T23:06:10.834Z,98588.43
2018-06-16T23:08:39.234Z,98590.53
2018-06-16T23:11:07.759Z,98583.45
2018-06-16T23:13:36.154Z,98587.23
2018-06-16T23:16:04.950Z,98583.33
2018-06-16T23:18:33.472Z,98584.09
2018-06-16T23:21:02.028Z,98581.29
2018-06-16T23:23:30.722Z,98586.36
2018-06-16T23:25:59.186Z,98580.63
2018-06-16T23:28:28.264Z,98582.66
2018-06-16T23:30:56.670Z,98574.75
2018-06-16T23:33:25.179Z,98587.77
2018-06-16T23:35:54.166Z,98589.33
2018-06-16T23:38:22.666Z,98592.53
2018-06-16T23:40:51.090Z,98582.41
2018-06-16T23:43:19.482Z,98583.71
2018-06-16T23:45:47.951Z,98583.05
2018-06-16T23:48:16.357Z,98579.55
2018-06-16T23:50:44.805Z,98584.45
2018-06-16T23:53:13.250Z,98576.33
2018-06-16T23:55:41.879Z,98589.20
2018-06-16T23:58:10.291Z,98580.39
